createdAt,value
2022-09-06T00:00:40.378Z,21.40
2022-09-06T00:03:42.703Z,22.40
2022-09-06T00:06:44.333Z,21.30
2022-09-06T00:09:46.004Z,22.80
2022-09-06T00:12:47.919Z,23.50
2022-09-06T00:15:49.549Z,23.10
2022-09-06T00:18:55.150Z,21.70
2022-09-06T00:21:56.746Z,22.80
2022-09-06T00:24:58.386Z,22.70
2022-09-06T00:28:03.001Z,22.80
2022-09-06T00:31:24.940Z,20.80
2022-09-06T00:34:27.831Z,20.70
2022-09-06T00:37:29.574Z,23.20
2022-09-06T00:40:33.962Z,21.50
2022-09-06T00:43:36.068Z,22.60
2022-09-06T00:46:42.091Z,22.00
2022-09-06T00:49:52.254Z,22.30
2022-09-06T00:52:54.616Z,21.10
2022-09-06T00:55:56.841Z,23.00
2022-09-06T00:59:00.160Z,20.50
2022-09-06T01:02:01.874Z,20.70
2022-09-06T01:05:04.827Z,22.80
2022-09-06T01:08:13.649Z,21.00
2022-09-06T01:11:21.539Z,21.10
2022-09-06T01:14:42.792Z,20.90
2022-09-06T01:18:02.917Z,21.20
2022-09-06T01:21:36.073Z,21.10
2022-09-06T01:24:55.705Z,21.20
2022-09-06T01:28:30.049Z,21.20
2022-09-06T01:31:35.418Z,21.10
2022-09-06T01:34:47.871Z,23.20
2022-09-06T01:37:49.760Z,22.60
2022-09-06T01:40:51.420Z,23.40
2022-09-06T01:43:54.471Z,20.90
2022-09-06T01:47:04.813Z,21.10
2022-09-06T01:50:28.031Z,20.80
2022-09-06T01:53:32.601Z,21.90
2022-09-06T01:56:43.207Z,21.10
2022-09-06T02:00:05.797Z,22.90
2022-09-06T02:03:30.010Z,21.10
2022-09-06T02:06:38.797Z,21.30
2022-09-06T02:09:42.657Z,21.20
2022-09-06T02:12:47.533Z,21.40
2022-09-06T02:15:56.122Z,23.30
2022-09-06T02:19:20.111Z,22.40
2022-09-06T02:22:27.238Z,20.40
2022-09-06T02:25:38.492Z,20.70
2022-09-06T02:28:40.350Z,22.70
2022-09-06T02:31:50.565Z,22.40
2022-09-06T02:34:57.034Z,22.80
2022-09-06T02:37:59.053Z,22.50
2022-09-06T02:41:01.166Z,22.70
2022-09-06T02:44:04.027Z,21.00
2022-09-06T02:47:05.999Z,22.20
2022-09-06T02:50:08.307Z,20.30
2022-09-06T02:53:14.501Z,20.00
2022-09-06T02:56:16.152Z,19.90
2022-09-06T02:59:17.765Z,22.40
2022-09-06T03:02:19.383Z,19.60
2022-09-06T03:05:21.366Z,21.50
2022-09-06T03:08:26.123Z,19.80
2022-09-06T03:11:28.373Z,22.10
2022-09-06T03:14:29.988Z,22.80
2022-09-06T03:17:31.570Z,20.70
2022-09-06T03:20:36.956Z,22.00
2022-09-06T03:23:39.478Z,21.20
2022-09-06T03:26:41.134Z,21.80
2022-09-06T03:29:42.757Z,21.90
2022-09-06T03:32:45.090Z,22.50
2022-09-06T03:35:58.870Z,19.20
2022-09-06T03:39:00.550Z,19.60
2022-09-06T03:42:02.396Z,21.60
2022-09-06T03:45:05.645Z,21.30
2022-09-06T03:48:07.229Z,20.00
2022-09-06T03:51:08.836Z,22.30
2022-09-06T03:54:10.542Z,19.30
2022-09-06T03:57:12.182Z,21.60
2022-09-06T04:00:14.468Z,21.50
2022-09-06T04:03:19.303Z,19.60
2022-09-06T04:06:21.105Z,22.20
2022-09-06T04:09:22.815Z,22.00
2022-09-06T04:12:24.518Z,19.50
2022-09-06T04:15:26.146Z,19.40
2022-09-06T04:18:28.310Z,21.50
2022-09-06T04:21:30.659Z,20.50
2022-09-06T04:24:32.286Z,19.20
2022-09-06T04:27:34.305Z,19.10
2022-09-06T04:30:35.949Z,19.20
2022-09-06T04:33:38.342Z,21.80
2022-09-06T04:36:40.005Z,19.80
2022-09-06T04:39:41.660Z,22.00
2022-09-06T04:42:43.366Z,21.90
2022-09-06T04:45:45.468Z,21.40
2022-09-06T04:48:50.785Z,21.50
2022-09-06T04:51:52.418Z,19.70
2022-09-06T04:54:54.021Z,22.00
2022-09-06T04:57:56.660Z,19.50
2022-09-06T05:00:58.458Z,19.10
2022-09-06T05:04:00.080Z,22.10
2022-09-06T05:07:08.162Z,19.90
2022-09-06T05:10:12.737Z,22.00
2022-09-06T05:13:14.640Z,22.20
2022-09-06T05:16:17.032Z,22.50
2022-09-06T05:19:19.320Z,22.10
2022-09-06T05:22:21.041Z,22.00
2022-09-06T05:25:23.031Z,21.30
2022-09-06T05:28:24.891Z,22.10
2022-09-06T05:31:31.681Z,21.50
2022-09-06T05:34:33.393Z,22.30
2022-09-06T05:37:35.009Z,22.10
2022-09-06T05:40:36.810Z,19.50
2022-09-06T05:43:38.562Z,20.00
2022-09-06T05:46:45.127Z,19.90
2022-09-06T05:49:46.890Z,22.30
2022-09-06T05:52:48.510Z,19.90
2022-09-06T05:55:50.252Z,21.40
2022-09-06T05:58:52.020Z,21.40
2022-09-06T06:01:54.377Z,22.20
2022-09-06T06:04:58.356Z,21.60
2022-09-06T06:08:00.179Z,19.70
2022-09-06T06:11:02.446Z,21.30
2022-09-06T06:14:04.733Z,22.40
2022-09-06T06:17:07.017Z,22.20
2022-09-06T06:20:09.871Z,21.30
2022-09-06T06:23:12.029Z,20.00
2022-09-06T06:26:14.176Z,20.90
2022-09-06T06:29:15.832Z,20.90
2022-09-06T06:32:17.450Z,22.00
2022-09-06T06:35:19.014Z,22.30
2022-09-06T06:38:20.596Z,21.90
2022-09-06T06:41:25.159Z,22.40
2022-09-06T06:44:28.183Z,22.80
2022-09-06T06:47:29.769Z,20.10
2022-09-06T06:50:31.420Z,23.10
2022-09-06T06:53:33.012Z,23.40
2022-09-06T06:56:40.689Z,22.90
2022-09-06T06:59:42.329Z,22.90
2022-09-06T07:02:43.968Z,23.60
2022-09-06T07:09:10.039Z,23.10
2022-09-06T07:12:11.666Z,22.90
2022-09-06T07:15:13.968Z,23.70
2022-09-06T07:18:16.449Z,22.10
2022-09-06T07:21:41.913Z,23.90
2022-09-06T07:24:43.628Z,22.10
2022-09-06T07:30:55.114Z,23.70
2022-09-06T07:33:56.770Z,24.60
2022-09-06T07:36:58.359Z,25.00
2022-09-06T07:40:00.663Z,24.30
2022-09-06T07:43:02.404Z,23.70
2022-09-06T07:46:06.455Z,25.80
2022-09-06T07:49:08.086Z,23.10
2022-09-06T07:55:31.297Z,25.70
2022-09-06T07:58:33.744Z,25.90
2022-09-06T08:01:37.478Z,24.60
2022-09-06T08:04:40.991Z,26.20
2022-09-06T08:07:42.585Z,26.00
2022-09-06T08:10:44.278Z,25.00
2022-09-06T08:13:50.274Z,26.10
2022-09-06T08:16:51.934Z,24.50
2022-09-06T08:19:53.545Z,25.90
2022-09-06T08:22:55.107Z,25.80
2022-09-06T08:25:59.969Z,26.10
2022-09-06T08:29:05.801Z,23.50
2022-09-06T08:32:07.402Z,25.70
2022-09-06T08:35:09.853Z,26.80
2022-09-06T08:38:11.520Z,23.70
2022-09-06T08:41:49.710Z,26.20
2022-09-06T08:47:59.567Z,26.70
2022-09-06T08:51:38.582Z,26.20
2022-09-06T08:54:48.106Z,24.10
2022-09-06T08:58:15.656Z,25.80
2022-09-06T09:01:27.274Z,25.40
2022-09-06T09:04:30.474Z,24.40
2022-09-06T09:07:51.580Z,26.60
2022-09-06T09:11:02.772Z,24.40
2022-09-06T09:14:26.722Z,26.70
2022-09-06T09:17:31.272Z,24.50
2022-09-06T09:20:33.014Z,27.10
2022-09-06T09:23:34.964Z,27.10
2022-09-06T09:26:55.501Z,25.90
2022-09-06T09:33:29.492Z,27.10
2022-09-06T09:36:33.016Z,28.30
2022-09-06T09:39:40.068Z,29.60
2022-09-06T09:42:41.899Z,31.30
2022-09-06T09:45:44.313Z,32.20
2022-09-06T09:49:10.515Z,31.50
2022-09-06T09:52:14.479Z,30.80
2022-09-06T09:55:16.128Z,31.60
2022-09-06T09:58:26.733Z,28.00
2022-09-06T10:01:35.845Z,27.60
2022-09-06T10:04:44.856Z,26.80
2022-09-06T10:07:47.281Z,26.70
2022-09-06T10:10:49.442Z,28.50
2022-09-06T10:14:11.155Z,29.10
2022-09-06T10:17:29.957Z,27.90
2022-09-06T10:21:05.493Z,26.40
2022-09-06T10:24:33.824Z,25.90
2022-09-06T10:27:45.736Z,26.30
2022-09-06T10:31:27.279Z,26.80
2022-09-06T10:34:32.251Z,26.30
2022-09-06T10:37:47.414Z,25.90
2022-09-06T10:41:10.477Z,27.70
2022-09-06T10:44:33.564Z,26.50
2022-09-06T10:47:54.449Z,26.60
2022-09-06T10:50:59.011Z,29.10
2022-09-06T10:54:00.636Z,26.30
2022-09-06T10:57:08.931Z,29.30
2022-09-06T11:00:13.618Z,27.90
2022-09-06T11:04:01.962Z,26.70
2022-09-06T11:07:36.304Z,28.60
2022-09-06T11:10:45.299Z,26.70
2022-09-06T11:13:47.471Z,29.70
2022-09-06T11:17:05.132Z,27.10
2022-09-06T11:20:16.175Z,27.20
2022-09-06T11:23:45.116Z,27.30
2022-09-06T11:27:23.017Z,27.20
2022-09-06T11:30:26.255Z,26.90
2022-09-06T11:33:39.633Z,27.30
2022-09-06T11:37:08.490Z,29.60
2022-09-06T11:43:46.738Z,27.40
2022-09-06T11:46:48.516Z,29.40
2022-09-06T11:49:50.313Z,29.00
2022-09-06T11:53:15.039Z,30.00
2022-09-06T11:56:39.673Z,28.40
2022-09-06T12:00:04.170Z,28.00
2022-09-06T12:07:11.343Z,28.30
2022-09-06T12:10:31.166Z,26.90
2022-09-06T12:13:54.886Z,29.50
2022-09-06T12:17:00.286Z,30.80
2022-09-06T12:20:06.820Z,28.20
2022-09-06T12:23:08.679Z,27.90
2022-09-06T12:26:12.042Z,30.40
2022-09-06T12:29:14.438Z,29.60
2022-09-06T12:32:39.139Z,30.80
2022-09-06T12:35:56.417Z,28.40
2022-09-06T12:39:06.147Z,30.60
2022-09-06T12:42:12.500Z,28.50
2022-09-06T12:45:14.897Z,31.20
2022-09-06T12:48:29.523Z,28.80
2022-09-06T12:51:31.810Z,28.80
2022-09-06T12:54:33.454Z,31.00
2022-09-06T12:57:35.220Z,28.80
2022-09-06T13:00:40.552Z,27.70
2022-09-06T13:03:56.743Z,28.60
2022-09-06T13:07:00.736Z,28.30
2022-09-06T13:10:03.335Z,31.60
2022-09-06T13:13:07.543Z,28.30
2022-09-06T13:16:09.433Z,28.90
2022-09-06T13:19:36.839Z,32.00
2022-09-06T13:22:41.081Z,29.90
2022-09-06T13:25:51.125Z,29.60
2022-09-06T13:28:52.731Z,29.60
2022-09-06T13:31:56.982Z,29.30
2022-09-06T13:35:00.142Z,31.10
2022-09-06T13:38:41.013Z,29.80
2022-09-06T13:41:44.118Z,28.70
2022-09-06T13:44:45.824Z,30.50
2022-09-06T13:47:59.973Z,28.50
2022-09-06T13:51:12.661Z,29.00
2022-09-06T13:54:15.617Z,30.20
2022-09-06T13:57:22.232Z,28.60
2022-09-06T14:00:25.930Z,26.40
2022-09-06T14:03:31.115Z,30.90
2022-09-06T14:06:36.671Z,29.10
2022-09-06T14:09:39.047Z,28.80
2022-09-06T14:12:40.731Z,28.40
2022-09-06T14:15:42.651Z,30.50
2022-09-06T14:18:45.158Z,30.80
2022-09-06T14:21:47.280Z,28.90
2022-09-06T14:24:49.098Z,28.60
2022-09-06T14:27:50.709Z,29.50
2022-09-06T14:30:53.133Z,30.60
2022-09-06T14:33:56.299Z,29.30
2022-09-06T14:36:57.966Z,28.30
2022-09-06T14:39:59.785Z,29.90
2022-09-06T14:43:03.134Z,30.10
2022-09-06T14:46:14.211Z,28.00
2022-09-06T14:49:16.136Z,29.10
2022-09-06T14:52:17.933Z,28.40
2022-09-06T14:55:20.633Z,29.20
2022-09-06T14:58:22.311Z,28.50
2022-09-06T15:01:28.646Z,31.00
2022-09-06T15:04:30.667Z,29.10
2022-09-06T15:07:32.480Z,30.30
2022-09-06T15:10:34.150Z,29.40
2022-09-06T15:13:40.352Z,29.70
2022-09-06T15:16:42.849Z,31.00
2022-09-06T15:19:49.137Z,30.40
2022-09-06T15:23:09.080Z,31.30
2022-09-06T15:26:15.589Z,30.00
2022-09-06T15:29:17.632Z,29.40
2022-09-06T15:32:20.293Z,29.10
2022-09-06T15:35:22.084Z,29.10
2022-09-06T15:38:24.851Z,29.20
2022-09-06T15:41:32.366Z,30.90
2022-09-06T15:44:34.281Z,28.10
2022-09-06T15:47:35.916Z,30.50
2022-09-06T15:50:50.331Z,30.40
2022-09-06T15:53:53.228Z,27.90
2022-09-06T15:56:56.739Z,28.30
2022-09-06T15:59:58.537Z,27.30
2022-09-06T16:03:00.318Z,28.80
2022-09-06T16:09:26.818Z,31.30
2022-09-06T16:12:28.521Z,30.20
2022-09-06T16:15:30.288Z,29.60
2022-09-06T16:18:33.411Z,28.00
2022-09-06T16:21:40.585Z,30.00
2022-09-06T16:24:42.394Z,27.00
2022-09-06T16:27:44.062Z,28.90
2022-09-06T16:30:46.181Z,27.10
2022-09-06T16:33:49.140Z,28.20
2022-09-06T16:36:50.892Z,27.70
2022-09-06T16:39:52.740Z,28.60
2022-09-06T16:42:54.510Z,26.90
2022-09-06T16:45:58.127Z,28.20
2022-09-06T16:49:01.457Z,29.50
2022-09-06T16:52:03.478Z,27.80
2022-09-06T16:55:05.686Z,29.10
2022-09-06T16:58:07.556Z,26.10
2022-09-06T17:01:10.555Z,26.20
2022-09-06T17:04:15.395Z,26.30
2022-09-06T17:07:27.925Z,25.90
2022-09-06T17:10:30.099Z,26.20
2022-09-06T17:13:32.251Z,28.30
2022-09-06T17:16:52.718Z,28.10
2022-09-06T17:19:54.563Z,27.50
2022-09-06T17:22:56.312Z,26.20
2022-09-06T17:26:01.319Z,28.80
2022-09-06T17:29:03.351Z,26.30
2022-09-06T17:32:09.917Z,26.60
2022-09-06T17:35:11.772Z,26.10
2022-09-06T17:38:14.359Z,26.70
2022-09-06T17:41:27.418Z,25.50
2022-09-06T17:44:29.567Z,26.30
2022-09-06T17:47:32.045Z,27.30
2022-09-06T17:50:34.583Z,25.40
2022-09-06T17:53:37.787Z,27.70
2022-09-06T17:56:40.534Z,25.60
2022-09-06T17:59:42.220Z,26.20
2022-09-06T18:02:44.331Z,28.00
2022-09-06T18:09:09.932Z,26.90
2022-09-06T18:12:11.902Z,26.20
2022-09-06T18:15:14.329Z,26.50
2022-09-06T18:24:58.182Z,26.80
2022-09-06T18:28:01.380Z,27.30
2022-09-06T18:37:41.620Z,24.10
2022-09-06T18:47:32.193Z,24.40
2022-09-06T18:50:38.943Z,24.00
2022-09-06T18:57:01.559Z,24.10
2022-09-06T19:00:05.829Z,25.50
2022-09-06T19:06:23.227Z,25.90
2022-09-06T19:09:24.960Z,26.00
2022-09-06T19:12:26.696Z,26.60
2022-09-06T19:15:28.481Z,26.10
2022-09-06T19:18:30.231Z,25.40
2022-09-06T19:21:33.525Z,25.10
2022-09-06T19:24:39.083Z,25.70
2022-09-06T19:27:40.761Z,23.40
2022-09-06T19:30:42.483Z,23.80
2022-09-06T19:33:45.917Z,26.60
2022-09-06T19:36:48.819Z,24.10
2022-09-06T19:39:50.669Z,23.60
2022-09-06T19:42:52.358Z,25.80
2022-09-06T19:45:56.860Z,25.60
2022-09-06T19:48:58.833Z,24.10
2022-09-06T19:52:01.945Z,26.20
2022-09-06T19:55:21.973Z,26.00
2022-09-06T19:58:26.056Z,22.70
2022-09-06T20:01:31.575Z,25.20
2022-09-06T20:04:33.731Z,25.20
2022-09-06T20:07:35.633Z,25.70
2022-09-06T20:10:37.578Z,23.00
2022-09-06T20:13:40.748Z,24.50
2022-09-06T20:19:58.927Z,25.30
2022-09-06T20:23:02.565Z,25.70
2022-09-06T20:26:11.270Z,25.90
2022-09-06T20:29:13.394Z,25.80
2022-09-06T20:32:15.300Z,24.80
2022-09-06T20:35:17.138Z,23.70
2022-09-06T20:38:18.974Z,25.70
2022-09-06T20:41:23.689Z,26.00
2022-09-06T20:44:26.694Z,24.50
2022-09-06T20:47:29.191Z,24.50
2022-09-06T20:50:42.391Z,25.10
2022-09-06T20:53:56.453Z,25.50
2022-09-06T20:56:59.596Z,25.50
2022-09-06T21:00:01.498Z,25.00
2022-09-06T21:03:06.422Z,23.60
2022-09-06T21:06:15.353Z,26.10
2022-09-06T21:09:17.573Z,25.90
2022-09-06T21:12:19.581Z,23.40
2022-09-06T21:15:21.603Z,24.40
2022-09-06T21:18:24.693Z,26.50
2022-09-06T21:21:32.349Z,24.10
2022-09-06T21:24:46.306Z,24.00
2022-09-06T21:27:50.660Z,25.80
2022-09-06T21:31:04.816Z,25.10
2022-09-06T21:34:16.194Z,23.70
2022-09-06T21:37:21.793Z,22.50
2022-09-06T21:40:34.945Z,25.70
2022-09-06T21:43:37.141Z,25.60
2022-09-06T21:46:39.902Z,26.20
2022-09-06T21:49:42.071Z,26.40
2022-09-06T21:52:46.454Z,25.70
2022-09-06T22:02:47.212Z,23.80
2022-09-06T22:15:51.735Z,25.60
2022-09-06T22:18:56.245Z,26.20
2022-09-06T22:22:04.889Z,26.50
2022-09-06T22:38:13.993Z,23.10
2022-09-06T22:41:16.298Z,24.50
2022-09-06T22:44:18.811Z,23.20
2022-09-06T22:47:21.289Z,25.80
2022-09-06T22:50:25.496Z,25.10
2022-09-06T22:53:33.395Z,25.50
2022-09-06T22:56:38.580Z,23.30
2022-09-06T23:02:59.855Z,25.10
2022-09-06T23:06:04.795Z,25.70
2022-09-06T23:09:12.418Z,24.80
2022-09-06T23:12:16.238Z,24.50
2022-09-06T23:15:23.066Z,26.00
2022-09-06T23:18:25.245Z,24.90
2022-09-06T23:21:29.470Z,25.60
2022-09-06T23:24:31.420Z,23.90
2022-09-06T23:27:34.169Z,24.80
2022-09-06T23:30:38.945Z,24.20
2022-09-06T23:33:44.729Z,24.10
2022-09-06T23:36:46.562Z,25.40
2022-09-06T23:39:54.613Z,25.40
2022-09-06T23:42:59.461Z,23.00
2022-09-06T23:46:01.373Z,24.20
2022-09-06T23:49:03.784Z,20.70
2022-09-06T23:52:08.201Z,24.20
2022-09-06T23:55:10.086Z,21.60
2022-09-06T23:58:12.538Z,21.00
